Time;durP1;ratioP1;P1;durP2;ratioP2;P2;SDS_P1;SDS_P2;PMS_P1;PMS_P2;Temp;Humidity;BMP_temperature;BMP_pressure;BME280_temperature;BME280_humidity;BME280_pressure;Samples;Min_cycle;Max_cycle;Signal;HPM_P1;HPM_P2
2021/12/05 00:19:55;;;;;;;0.10;0.10;;;2.60;99.90;;;;;;4975621;28;20706;-69
2021/12/05 00:22:29;;;;;;;0.10;0.10;;;2.60;99.90;;;;;;5030400;28;20625;-68
2021/12/05 00:24:59;;;;;;;0.13;0.13;;;2.60;99.90;;;;;;5052719;28;20611;-68
2021/12/05 00:27:32;;;;;;;0.10;0.10;;;2.60;99.90;;;;;;5050391;28;20769;-68
2021/12/05 00:30:12;;;;;;;0.20;0.20;;;2.50;99.90;;;;;;5053371;28;20627;-69
2021/12/05 00:32:48;;;;;;;0.10;0.10;;;2.60;99.90;;;;;;5053851;28;20705;-68
2021/12/05 00:44:12;;;;;;;0.10;0.10;;;2.60;99.90;;;;;;5050719;28;20984;-69
2021/12/05 00:47:00;;;;;;;0.10;0.10;;;2.60;99.90;;;;;;5051673;28;20673;-69
2021/12/05 00:49:52;;;;;;;0.10;0.10;;;2.60;99.90;;;;;;5053956;28;20752;-69
2021/12/05 00:52:53;;;;;;;0.10;0.10;;;2.60;99.90;;;;;;5052154;28;20623;-70
2021/12/05 00:55:37;;;;;;;0.10;0.10;;;2.60;99.90;;;;;;5052209;28;20696;-68
2021/12/05 00:59:01;;;;;;;0.10;0.10;;;2.70;99.90;;;;;;5049179;28;20653;-69
2021/12/05 01:01:36;;;;;;;0.10;0.10;;;2.70;99.90;;;;;;5051082;28;20656;-68
2021/12/05 01:04:35;;;;;;;0.10;0.10;;;2.80;99.90;;;;;;5061716;28;20617;-69
2021/12/05 01:07:17;;;;;;;0.10;0.10;;;2.80;99.90;;;;;;5064583;28;20675;-68
2021/12/05 01:09:51;;;;;;;0.10;0.10;;;2.80;99.90;;;;;;5063518;28;20625;-69
2021/12/05 01:12:34;;;;;;;0.13;0.13;;;2.80;99.90;;;;;;5055018;28;20624;-68
2021/12/05 01:15:12;;;;;;;0.10;0.10;;;2.80;99.90;;;;;;5056031;28;20613;-68
2021/12/05 01:17:54;;;;;;;0.10;0.10;;;2.80;99.90;;;;;;5070588;28;20645;-68
2021/12/05 01:20:24;;;;;;;0.10;0.10;;;2.90;99.90;;;;;;5053205;28;20644;-68
2021/12/05 01:22:59;;;;;;;0.10;0.10;;;2.90;99.90;;;;;;5063557;28;20626;-69
2021/12/05 01:25:37;;;;;;;0.10;0.10;;;2.90;99.90;;;;;;5062548;28;20620;-68
2021/12/05 01:28:12;;;;;;;0.10;0.10;;;2.90;99.90;;;;;;5055619;28;20672;-68
2021/12/05 01:30:46;;;;;;;0.10;0.10;;;2.90;99.90;;;;;;5061150;28;20636;-69
2021/12/05 01:33:20;;;;;;;0.10;0.10;;;2.90;99.90;;;;;;5052924;28;20621;-67
2021/12/05 01:36:05;;;;;;;0.10;0.10;;;2.90;99.90;;;;;;5063272;28;20630;-67
2021/12/05 01:38:51;;;;;;;0.10;0.10;;;2.90;99.90;;;;;;5053232;28;20657;-68
2021/12/05 01:52:53;;;;;;;0.10;0.10;;;2.90;99.90;;;;;;5041809;28;20717;-68
2021/12/05 01:55:50;;;;;;;0.10;0.10;;;2.90;99.90;;;;;;5057209;28;20640;-69
2021/12/05 02:01:45;;;;;;;0.17;0.17;;;2.90;99.90;;;;;;5021396;28;20651;-67
2021/12/05 02:10:44;;;;;;;0.10;0.10;;;2.90;99.90;;;;;;5053451;28;20701;-68
2021/12/05 02:29:59;;;;;;;0.20;0.20;;;2.90;99.90;;;;;;5057276;28;20631;-67
2021/12/05 02:35:36;;;;;;;0.10;0.10;;;2.90;99.90;;;;;;5075933;28;20617;-67
2021/12/05 02:41:15;;;;;;;0.10;0.10;;;2.90;99.90;;;;;;5034723;28;20609;-67
2021/12/05 02:43:45;;;;;;;0.10;0.10;;;2.90;99.90;;;;;;5053551;28;20627;-67
2021/12/05 02:46:15;;;;;;;0.10;0.10;;;2.90;99.90;;;;;;5056578;28;20746;-67
2021/12/05 02:48:44;;;;;;;0.10;0.10;;;2.80;99.90;;;;;;5071743;28;20621;-67
2021/12/05 02:51:14;;;;;;;0.10;0.10;;;2.80;99.90;;;;;;5054353;28;20647;-67
2021/12/05 02:53:46;;;;;;;0.20;0.20;;;2.80;99.90;;;;;;5057694;28;20621;-67
2021/12/05 02:56:15;;;;;;;0.10;0.10;;;2.80;99.90;;;;;;5056384;28;20761;-67
2021/12/05 02:58:47;;;;;;;0.10;0.10;;;2.90;99.90;;;;;;5058862;28;20682;-67
2021/12/05 03:01:20;;;;;;;0.10;0.10;;;2.90;99.90;;;;;;5057318;28;20702;-66
2021/12/05 03:03:48;;;;;;;0.10;0.10;;;2.90;99.90;;;;;;5054922;28;20627;-67
2021/12/05 03:06:22;;;;;;;0.10;0.10;;;2.90;99.90;;;;;;5056263;28;20684;-67
2021/12/05 03:08:56;;;;;;;0.10;0.10;;;2.90;99.90;;;;;;5059095;28;20623;-67
2021/12/05 03:11:24;;;;;;;0.10;0.10;;;2.90;99.90;;;;;;5057924;28;20608;-67
2021/12/05 03:13:51;;;;;;;0.10;0.10;;;3.00;99.90;;;;;;5062203;28;20672;-67
2021/12/05 03:16:23;;;;;;;0.10;0.10;;;3.00;99.90;;;;;;5059281;28;21267;-67
2021/12/05 03:18:51;;;;;;;0.10;0.10;;;3.00;99.90;;;;;;5058594;28;20620;-67
2021/12/05 03:21:18;;;;;;;0.10;0.10;;;3.10;99.90;;;;;;5040667;28;20710;-67
2021/12/05 03:23:49;;;;;;;0.10;0.10;;;3.10;99.90;;;;;;5055155;28;20727;-67
2021/12/05 03:26:21;;;;;;;0.10;0.10;;;3.10;99.90;;;;;;5058504;28;21264;-67
2021/12/05 03:28:50;;;;;;;0.10;0.10;;;3.10;99.90;;;;;;5053459;28;20627;-67
2021/12/05 03:31:19;;;;;;;0.10;0.10;;;3.20;99.90;;;;;;5029339;28;20630;-67
2021/12/05 03:33:50;;;;;;;0.20;0.20;;;3.20;99.90;;;;;;5058031;28;20628;-67
2021/12/05 03:36:18;;;;;;;0.10;0.10;;;3.30;99.90;;;;;;5043438;28;20663;-67
2021/12/05 03:38:45;;;;;;;0.10;0.10;;;3.30;99.90;;;;;;5043553;28;20944;-67
2021/12/05 03:41:16;;;;;;;0.10;0.10;;;3.30;99.90;;;;;;5044072;28;20630;-67
2021/12/05 03:43:49;;;;;;;0.10;0.10;;;3.30;99.90;;;;;;5046168;28;20656;-66
2021/12/05 03:46:18;;;;;;;0.10;0.10;;;3.40;99.90;;;;;;5045849;28;20707;-67
2021/12/05 03:48:52;;;;;;;0.10;0.10;;;3.40;99.90;;;;;;5043901;28;20652;-67
2021/12/05 03:51:21;;;;;;;0.10;0.10;;;3.50;99.90;;;;;;5042594;28;20640;-66
2021/12/05 03:53:50;;;;;;;0.20;0.20;;;3.50;99.90;;;;;;5041280;28;20622;-66
2021/12/05 03:56:20;;;;;;;0.10;0.10;;;3.50;99.90;;;;;;5047332;28;20668;-67
2021/12/05 03:58:51;;;;;;;0.20;0.20;;;3.60;99.90;;;;;;5027391;28;20649;-67
2021/12/05 04:01:21;;;;;;;0.10;0.10;;;3.60;99.90;;;;;;5041960;28;20626;-69
2021/12/05 04:03:49;;;;;;;0.10;0.10;;;3.70;99.90;;;;;;5025710;28;20615;-67
2021/12/05 04:06:20;;;;;;;0.10;0.10;;;3.70;99.90;;;;;;5044181;28;20656;-67
2021/12/05 04:08:49;;;;;;;0.20;0.20;;;3.70;99.90;;;;;;5042016;28;20627;-67
2021/12/05 04:11:18;;;;;;;0.10;0.10;;;3.70;99.90;;;;;;5047285;28;20617;-67
2021/12/05 04:13:46;;;;;;;0.10;0.10;;;3.70;99.90;;;;;;5028025;28;20723;-67
2021/12/05 04:16:15;;;;;;;0.10;0.10;;;3.80;99.90;;;;;;5044097;28;20685;-67
2021/12/05 04:18:45;;;;;;;0.10;0.10;;;3.80;99.90;;;;;;5043570;28;20659;-67
2021/12/05 04:21:13;;;;;;;0.10;0.10;;;3.80;99.90;;;;;;5047189;28;20715;-67
2021/12/05 04:23:40;;;;;;;0.13;0.13;;;3.80;99.90;;;;;;5040940;28;20629;-67
2021/12/05 04:26:07;;;;;;;0.10;0.10;;;3.80;99.90;;;;;;5045285;28;20668;-67
2021/12/05 04:28:35;;;;;;;0.17;0.17;;;3.80;99.90;;;;;;5044276;28;20720;-67
2021/12/05 04:31:02;;;;;;;0.10;0.10;;;3.80;99.90;;;;;;5039462;28;20626;-66
2021/12/05 04:33:32;;;;;;;0.10;0.10;;;3.80;99.90;;;;;;5040698;28;20620;-67
2021/12/05 04:35:59;;;;;;;0.10;0.10;;;3.80;99.90;;;;;;5043618;28;20649;-67
2021/12/05 04:38:27;;;;;;;0.17;0.17;;;3.80;99.90;;;;;;5042098;28;20780;-67
2021/12/05 04:40:54;;;;;;;0.10;0.10;;;3.80;99.90;;;;;;5040264;28;20632;-68
2021/12/05 04:43:22;;;;;;;0.10;0.10;;;3.80;99.90;;;;;;5039589;28;20609;-66
2021/12/05 04:45:52;;;;;;;0.10;0.10;;;3.80;99.90;;;;;;5028323;28;20660;-67
2021/12/05 04:48:19;;;;;;;0.10;0.10;;;3.80;99.90;;;;;;5029663;28;20625;-66
2021/12/05 04:50:49;;;;;;;0.10;0.10;;;3.90;99.90;;;;;;5042005;28;20986;-67
2021/12/05 04:53:17;;;;;;;0.10;0.10;;;3.90;99.90;;;;;;5039770;28;20629;-67
2021/12/05 04:55:45;;;;;;;0.10;0.10;;;3.90;99.90;;;;;;5041191;28;20755;-67
2021/12/05 04:58:15;;;;;;;0.20;0.20;;;3.90;99.90;;;;;;5041229;28;20658;-67
2021/12/05 05:00:46;;;;;;;0.10;0.10;;;3.80;99.90;;;;;;5044861;28;20637;-67
2021/12/05 05:03:14;;;;;;;0.10;0.10;;;3.80;99.90;;;;;;5042594;28;20627;-67
2021/12/05 05:05:48;;;;;;;0.10;0.10;;;3.80;99.90;;;;;;5045907;28;20643;-67
2021/12/05 05:08:17;;;;;;;0.10;0.10;;;3.80;99.90;;;;;;5042427;28;20648;-67
2021/12/05 05:10:44;;;;;;;0.10;0.10;;;3.80;99.90;;;;;;5039571;28;20629;-66
2021/12/05 05:13:12;;;;;;;0.10;0.10;;;3.70;99.90;;;;;;5043623;28;20662;-67
2021/12/05 05:15:39;;;;;;;0.10;0.10;;;3.80;99.90;;;;;;5041234;28;20613;-67
2021/12/05 05:18:08;;;;;;;0.10;0.10;;;3.70;99.90;;;;;;5042855;28;20691;-67
2021/12/05 05:20:39;;;;;;;0.10;0.10;;;3.70;99.90;;;;;;5041329;28;20610;-67
2021/12/05 05:23:25;;;;;;;0.20;0.20;;;3.70;99.90;;;;;;5042511;28;20667;-66
2021/12/05 05:29:03;;;;;;;0.10;0.10;;;3.70;99.90;;;;;;5057900;28;20622;-67
2021/12/05 05:40:04;;;;;;;0.10;0.10;;;3.70;99.90;;;;;;5042981;28;20625;-67
2021/12/05 05:45:25;;;;;;;0.10;0.10;;;3.70;99.90;;;;;;5021925;28;20622;-67
2021/12/05 05:48:01;;;;;;;0.10;0.10;;;3.70;99.90;;;;;;5046683;28;20629;-67
2021/12/05 05:50:28;;;;;;;0.10;0.10;;;3.70;99.90;;;;;;5045140;28;21227;-66
2021/12/05 05:52:56;;;;;;;0.10;0.10;;;3.70;99.90;;;;;;5040257;28;20633;-66
2021/12/05 05:55:23;;;;;;;0.10;0.10;;;3.70;99.90;;;;;;5044177;28;20618;-67
2021/12/05 05:58:02;;;;;;;0.10;0.10;;;3.70;99.90;;;;;;5043786;28;20656;-67
2021/12/05 06:00:34;;;;;;;0.10;0.10;;;3.70;99.90;;;;;;5027334;28;20741;-68
2021/12/05 06:03:21;;;;;;;0.10;0.10;;;3.70;99.90;;;;;;5046445;28;20728;-66
2021/12/05 06:05:51;;;;;;;0.10;0.10;;;3.70;99.90;;;;;;5041395;28;20652;-67
2021/12/05 06:08:19;;;;;;;0.13;0.13;;;3.70;99.90;;;;;;5041726;28;20630;-68
2021/12/05 06:10:46;;;;;;;0.10;0.10;;;3.60;99.90;;;;;;5043259;28;20668;-67
2021/12/05 06:13:18;;;;;;;0.10;0.10;;;3.60;99.90;;;;;;5042417;28;20744;-67
2021/12/05 06:15:46;;;;;;;0.13;0.13;;;3.60;99.90;;;;;;5043016;28;20644;-68
2021/12/05 06:18:13;;;;;;;0.10;0.10;;;3.70;99.90;;;;;;5043624;28;20743;-67
2021/12/05 06:20:40;;;;;;;0.10;0.10;;;3.70;99.90;;;;;;5039294;28;20629;-67
2021/12/05 06:23:09;;;;;;;0.10;0.10;;;3.70;99.90;;;;;;5041305;28;20622;-66
2021/12/05 06:25:38;;;;;;;0.10;0.10;;;3.70;99.90;;;;;;5043634;28;20625;-66
2021/12/05 06:28:11;;;;;;;0.20;0.20;;;3.70;99.90;;;;;;5044328;28;20651;-67
2021/12/05 06:30:50;;;;;;;0.10;0.10;;;3.70;99.90;;;;;;5043113;28;20639;-68
2021/12/05 06:41:51;;;;;;;0.10;0.10;;;3.60;99.90;;;;;;5037082;28;21216;-67
2021/12/05 06:47:02;;;;;;;0.10;0.10;;;3.50;99.90;;;;;;4993656;28;20641;-68
2021/12/05 06:49:29;;;;;;;0.10;0.10;;;3.50;99.90;;;;;;5041171;28;20629;-67
2021/12/05 06:51:56;;;;;;;0.10;0.10;;;3.40;99.90;;;;;;5042706;28;20628;-67
2021/12/05 06:54:24;;;;;;;0.10;0.10;;;3.40;99.90;;;;;;5047052;28;20609;-67
2021/12/05 06:56:51;;;;;;;0.10;0.10;;;3.30;99.90;;;;;;5045037;28;20646;-67
2021/12/05 06:59:18;;;;;;;0.10;0.10;;;3.30;99.90;;;;;;5041660;28;21336;-67
2021/12/05 07:01:45;;;;;;;0.10;0.10;;;3.20;99.90;;;;;;5046210;28;20619;-67
2021/12/05 07:04:29;;;;;;;0.10;0.10;;;3.20;99.90;;;;;;5038627;28;20642;-67
2021/12/05 07:06:56;;;;;;;0.20;0.20;;;3.10;99.90;;;;;;5044724;28;20629;-67
2021/12/05 07:09:23;;;;;;;0.10;0.10;;;3.10;99.90;;;;;;5050249;28;20725;-67
2021/12/05 07:12:09;;;;;;;0.10;0.10;;;3.00;99.90;;;;;;5043776;28;20731;-67
2021/12/05 07:14:43;;;;;;;0.20;0.20;;;3.00;99.90;;;;;;5043922;28;20671;-67
2021/12/05 07:19:55;;;;;;;0.20;0.20;;;3.00;99.90;;;;;;5045503;28;20656;-67
2021/12/05 07:22:27;;;;;;;0.10;0.10;;;2.90;99.90;;;;;;5031237;28;20617;-67
2021/12/05 07:25:05;;;;;;;0.10;0.10;;;2.90;99.90;;;;;;5040902;28;20635;-67
2021/12/05 07:41:29;;;;;;;0.10;0.10;;;2.80;99.90;;;;;;5041737;28;20659;-67
2021/12/05 07:43:57;;;;;;;0.10;0.10;;;2.80;99.90;;;;;;5040115;28;20632;-67
2021/12/05 07:46:24;;;;;;;0.10;0.10;;;2.70;99.90;;;;;;5039590;28;20657;-68
2021/12/05 07:48:50;;;;;;;0.13;0.13;;;2.70;99.90;;;;;;5044118;28;20707;-67
2021/12/05 07:51:26;;;;;;;0.10;0.10;;;2.70;99.90;;;;;;5045812;28;20604;-67
2021/12/05 07:54:04;;;;;;;0.10;0.10;;;2.70;99.90;;;;;;5047026;28;20685;-67
2021/12/05 07:56:38;;;;;;;0.10;0.10;;;2.70;99.90;;;;;;5044306;28;20672;-67
2021/12/05 07:59:20;;;;;;;0.10;0.10;;;2.80;99.90;;;;;;5042489;28;21297;-66
2021/12/05 08:15:40;;;;;;;0.13;0.13;;;3.00;99.90;;;;;;5034844;28;20773;-67
2021/12/05 08:18:07;;;;;;;0.20;0.20;;;3.00;99.90;;;;;;5036070;28;20695;-68
2021/12/05 08:20:40;;;;;;;0.20;0.20;;;3.00;99.90;;;;;;5043858;28;21194;-67
2021/12/05 08:23:11;;;;;;;0.10;0.10;;;3.10;99.90;;;;;;5038883;28;20698;-67
2021/12/05 08:25:40;;;;;;;0.20;0.20;;;3.10;99.90;;;;;;5041451;28;20995;-67
2021/12/05 08:28:21;;;;;;;0.20;0.20;;;3.10;99.90;;;;;;5034870;28;20701;-67
2021/12/05 08:31:07;;;;;;;0.10;0.10;;;3.10;99.90;;;;;;5036411;28;20639;-67
2021/12/05 08:33:59;;;;;;;0.20;0.20;;;3.10;99.90;;;;;;5037662;28;20987;-66
2021/12/05 08:39:37;;;;;;;0.20;0.20;;;3.20;99.90;;;;;;5037807;28;20657;-67
2021/12/05 08:42:31;;;;;;;0.10;0.10;;;3.20;99.90;;;;;;5037709;28;21085;-68
2021/12/05 08:45:39;;;;;;;0.20;0.20;;;3.20;99.90;;;;;;5035460;28;20625;-68
2021/12/05 09:24:40;;;;;;;0.20;0.20;;;4.20;99.90;;;;;;5033975;28;20624;-67
2021/12/05 09:38:53;;;;;;;0.10;0.10;;;4.50;99.90;;;;;;5055952;28;20624;-67
2021/12/05 10:06:47;;;;;;;0.10;0.10;;;4.60;99.90;;;;;;5071971;28;20639;-66
2021/12/05 10:09:58;;;;;;;0.10;0.10;;;4.60;99.90;;;;;;5089448;28;20638;-67
2021/12/05 10:12:49;;;;;;;0.10;0.10;;;4.60;99.90;;;;;;5070579;28;20618;-68
2021/12/05 10:15:37;;;;;;;0.10;0.10;;;4.70;99.90;;;;;;5070383;28;20631;-67
2021/12/05 10:27:24;;;;;;;0.20;0.20;;;5.00;99.90;;;;;;5087762;28;20704;-67
2021/12/05 10:35:50;;;;;;;0.10;0.10;;;5.20;99.90;;;;;;5070333;28;20702;-67
2021/12/05 10:38:23;;;;;;;0.10;0.10;;;5.20;99.90;;;;;;5072486;28;20791;-67
2021/12/05 10:40:59;;;;;;;0.10;0.10;;;5.30;99.90;;;;;;5079786;28;20619;-68
2021/12/05 10:43:28;;;;;;;0.10;0.10;;;5.40;99.90;;;;;;5057353;28;20706;-67
2021/12/05 10:46:03;;;;;;;0.10;0.10;;;5.50;99.90;;;;;;5075316;28;20646;-68
2021/12/05 10:48:34;;;;;;;0.10;0.10;;;5.50;99.90;;;;;;5058518;28;20712;-66
2021/12/05 10:51:03;;;;;;;0.10;0.10;;;5.70;99.90;;;;;;5060080;28;20622;-66
2021/12/05 10:53:36;;;;;;;0.10;0.10;;;5.90;99.90;;;;;;5061199;28;20624;-67
2021/12/05 10:56:19;;;;;;;0.10;0.10;;;6.10;99.90;;;;;;5066875;28;20661;-68
2021/12/05 10:58:52;;;;;;;0.10;0.10;;;6.20;99.90;;;;;;5064273;28;20624;-68
2021/12/05 11:01:28;;;;;;;0.13;0.13;;;6.20;99.90;;;;;;5065780;28;20627;-68
2021/12/05 11:03:58;;;;;;;0.10;0.10;;;6.10;99.90;;;;;;5078417;28;20634;-68
2021/12/05 11:06:42;;;;;;;0.10;0.10;;;6.10;99.90;;;;;;5079854;28;21167;-68
2021/12/05 11:09:14;;;;;;;0.10;0.10;;;6.00;99.90;;;;;;5077135;28;20663;-67
2021/12/05 11:11:44;;;;;;;0.10;0.10;;;5.90;99.90;;;;;;5060634;28;20685;-68
2021/12/05 11:14:15;;;;;;;0.10;0.10;;;5.80;99.90;;;;;;5061489;28;20730;-67
2021/12/05 11:16:49;;;;;;;0.10;0.10;;;5.80;99.90;;;;;;5059506;28;20660;-68
2021/12/05 11:19:26;;;;;;;0.20;0.20;;;5.70;99.90;;;;;;5078770;28;20600;-67
2021/12/05 11:21:58;;;;;;;0.10;0.10;;;5.70;99.90;;;;;;5060566;28;20728;-67
2021/12/05 11:24:30;;;;;;;0.10;0.10;;;5.60;99.90;;;;;;5078713;28;21321;-68
2021/12/05 11:27:23;;;;;;;0.10;0.10;;;5.60;99.90;;;;;;5061173;28;20670;-68
2021/12/05 11:30:02;;;;;;;0.10;0.10;;;5.50;99.90;;;;;;5058422;28;20689;-68
2021/12/05 11:32:36;;;;;;;0.10;0.10;;;5.50;99.90;;;;;;5061310;28;20639;-68
2021/12/05 11:35:17;;;;;;;0.10;0.10;;;5.40;99.90;;;;;;5053140;28;20642;-68
2021/12/05 11:38:14;;;;;;;0.10;0.10;;;5.40;99.90;;;;;;5080306;28;20639;-67
2021/12/05 11:40:53;;;;;;;0.10;0.10;;;5.40;99.90;;;;;;5049865;28;20616;-67
2021/12/05 11:43:23;;;;;;;0.10;0.10;;;5.50;99.90;;;;;;5060385;28;20623;-67
2021/12/05 11:45:58;;;;;;;0.10;0.10;;;5.50;99.90;;;;;;5059320;28;21365;-67
2021/12/05 11:48:28;;;;;;;0.10;0.10;;;5.50;99.90;;;;;;5059594;28;20632;-67
2021/12/05 11:50:56;;;;;;;0.10;0.10;;;5.40;99.90;;;;;;5058578;28;20655;-67
2021/12/05 11:53:42;;;;;;;0.10;0.10;;;5.40;99.90;;;;;;5057894;28;20636;-67
2021/12/05 11:56:20;;;;;;;0.10;0.10;;;5.40;99.90;;;;;;5077440;28;20643;-67
2021/12/05 11:59:04;;;;;;;0.10;0.10;;;5.30;99.90;;;;;;5058698;28;20631;-67
2021/12/05 12:01:35;;;;;;;0.20;0.20;;;5.30;99.90;;;;;;5061269;28;20631;-68
2021/12/05 12:04:02;;;;;;;0.10;0.10;;;5.30;99.90;;;;;;5058215;28;20631;-67
2021/12/05 12:06:30;;;;;;;0.10;0.10;;;5.30;99.90;;;;;;5077544;28;20647;-68
2021/12/05 12:08:57;;;;;;;0.10;0.10;;;5.30;99.90;;;;;;5059499;28;20687;-67
2021/12/05 12:11:27;;;;;;;0.10;0.10;;;5.40;99.90;;;;;;5060513;28;20624;-68
2021/12/05 12:13:54;;;;;;;0.10;0.10;;;5.50;99.90;;;;;;5057799;28;20628;-67
2021/12/05 12:16:22;;;;;;;0.10;0.10;;;5.50;99.90;;;;;;5076676;28;20743;-67
2021/12/05 12:18:51;;;;;;;0.10;0.10;;;5.60;99.90;;;;;;5076998;28;20599;-67
2021/12/05 12:21:22;;;;;;;0.20;0.20;;;5.60;99.90;;;;;;5058652;28;20714;-67
2021/12/05 12:23:53;;;;;;;0.10;0.10;;;5.60;99.90;;;;;;5065974;28;20637;-67
2021/12/05 12:26:20;;;;;;;0.10;0.10;;;5.70;99.90;;;;;;5060809;28;20651;-67
2021/12/05 12:28:48;;;;;;;0.10;0.10;;;5.70;99.90;;;;;;5058562;28;21274;-67
2021/12/05 12:31:40;;;;;;;0.10;0.10;;;5.70;99.90;;;;;;5076754;28;20622;-67
2021/12/05 12:34:10;;;;;;;0.10;0.10;;;5.80;99.90;;;;;;5057919;28;20624;-67
2021/12/05 12:36:39;;;;;;;0.10;0.10;;;5.90;99.90;;;;;;5076393;28;20742;-67
2021/12/05 12:39:25;;;;;;;0.10;0.10;;;5.90;99.90;;;;;;5077789;28;20608;-68
2021/12/05 12:42:10;;;;;;;0.10;0.10;;;6.00;99.90;;;;;;5057431;28;20616;-67
2021/12/05 12:44:56;;;;;;;0.10;0.10;;;6.00;99.90;;;;;;5057357;28;20662;-67
2021/12/05 12:47:51;;;;;;;0.10;0.10;;;6.00;99.90;;;;;;5075856;28;20634;-67
2021/12/05 12:50:26;;;;;;;0.10;0.10;;;6.00;99.90;;;;;;5075325;28;20663;-68
2021/12/05 12:52:59;;;;;;;0.10;0.10;;;6.00;99.90;;;;;;5075553;28;20613;-67
2021/12/05 12:55:31;;;;;;;0.10;0.10;;;6.10;99.90;;;;;;5058224;28;20624;-68
2021/12/05 12:57:59;;;;;;;0.10;0.10;;;6.10;99.90;;;;;;5058328;28;20723;-68
2021/12/05 13:00:30;;;;;;;0.10;0.10;;;6.10;99.90;;;;;;5075216;28;20691;-68
2021/12/05 13:03:00;;;;;;;0.10;0.10;;;6.00;99.90;;;;;;5056256;28;20628;-68
2021/12/05 13:05:54;;;;;;;0.10;0.10;;;6.00;99.90;;;;;;5051779;28;20616;-67
2021/12/05 13:11:11;;;;;;;0.10;0.10;;;5.80;99.90;;;;;;5056213;28;21220;-67
2021/12/05 13:13:41;;;;;;;0.10;0.10;;;5.80;99.90;;;;;;5071787;28;20604;-66
2021/12/05 13:16:16;;;;;;;0.10;0.10;;;5.80;99.90;;;;;;5074669;28;20647;-67
2021/12/05 13:18:45;;;;;;;0.10;0.10;;;5.80;99.90;;;;;;5073654;28;20607;-67
2021/12/05 13:21:16;;;;;;;0.10;0.10;;;5.80;99.90;;;;;;5056951;28;20635;-67
2021/12/05 13:23:46;;;;;;;0.10;0.10;;;5.80;99.90;;;;;;5055817;28;20612;-67
2021/12/05 13:26:26;;;;;;;0.10;0.10;;;5.80;99.90;;;;;;5071897;28;21131;-67
2021/12/05 13:28:57;;;;;;;0.10;0.10;;;5.80;99.90;;;;;;5057548;28;20662;-67
2021/12/05 13:31:56;;;;;;;0.10;0.10;;;5.70;99.90;;;;;;5057447;28;20624;-67
2021/12/05 13:34:31;;;;;;;0.10;0.10;;;5.70;99.90;;;;;;5074758;28;20603;-67
2021/12/05 13:37:16;;;;;;;0.10;0.10;;;5.60;99.90;;;;;;5070990;28;20720;-67
2021/12/05 13:39:47;;;;;;;0.10;0.10;;;5.60;99.90;;;;;;5063021;28;20664;-65
2021/12/05 13:42:18;;;;;;;0.10;0.10;;;5.60;99.90;;;;;;5062198;28;20620;-68
2021/12/05 13:45:17;;;;;;;0.10;0.10;;;5.50;99.90;;;;;;5057286;28;20624;-68
2021/12/05 13:48:07;;;;;;;0.10;0.10;;;5.50;99.90;;;;;;5057345;28;20647;-70
2021/12/05 13:50:38;;;;;;;0.10;0.10;;;5.40;99.90;;;;;;5056024;28;20661;-67
2021/12/05 13:53:36;;;;;;;0.10;0.10;;;5.40;99.90;;;;;;5056651;28;20715;-67
2021/12/05 13:56:14;;;;;;;0.10;0.10;;;5.30;99.90;;;;;;5050399;28;20767;-67
2021/12/05 13:58:47;;;;;;;0.10;0.10;;;5.30;99.90;;;;;;5057219;28;20623;-67
2021/12/05 14:01:21;;;;;;;0.10;0.10;;;5.20;99.90;;;;;;5052395;28;20694;-67
2021/12/05 14:03:54;;;;;;;0.10;0.10;;;5.20;99.90;;;;;;5055954;28;20620;-66
2021/12/05 14:06:44;;;;;;;0.10;0.10;;;5.10;99.90;;;;;;5059172;28;20690;-67
2021/12/05 14:09:21;;;;;;;0.20;0.20;;;5.10;99.90;;;;;;5059436;28;20632;-67
2021/12/05 14:11:52;;;;;;;0.10;0.10;;;5.00;99.90;;;;;;5057812;28;20623;-67
2021/12/05 14:14:22;;;;;;;0.10;0.10;;;5.00;99.90;;;;;;5057592;28;20631;-67
2021/12/05 14:16:51;;;;;;;0.10;0.10;;;4.90;99.90;;;;;;5061503;28;20648;-67
2021/12/05 14:19:23;;;;;;;0.10;0.10;;;4.90;99.90;;;;;;5061431;28;20619;-67
2021/12/05 14:21:52;;;;;;;0.10;0.10;;;4.80;99.90;;;;;;5079060;28;20665;-67
2021/12/05 14:24:21;;;;;;;0.10;0.10;;;4.80;99.90;;;;;;5080162;28;20615;-67
2021/12/05 14:26:49;;;;;;;0.10;0.10;;;4.80;99.90;;;;;;5061888;28;20663;-67
2021/12/05 14:29:18;;;;;;;0.17;0.17;;;4.80;99.90;;;;;;5062266;28;20638;-67
2021/12/05 14:31:48;;;;;;;0.10;0.10;;;4.80;99.90;;;;;;5056973;28;20627;-67
2021/12/05 14:34:15;;;;;;;0.10;0.10;;;4.90;99.90;;;;;;5077263;28;20618;-68
2021/12/05 14:36:47;;;;;;;0.10;0.10;;;4.80;99.90;;;;;;5060664;28;20667;-67
2021/12/05 14:39:19;;;;;;;0.13;0.13;;;4.80;99.90;;;;;;5060692;28;20638;-66
2021/12/05 14:41:50;;;;;;;0.10;0.10;;;4.70;99.90;;;;;;5059923;28;20635;-66
2021/12/05 14:44:20;;;;;;;0.10;0.10;;;4.60;99.90;;;;;;5059607;28;20655;-67
2021/12/05 14:46:50;;;;;;;0.10;0.10;;;4.60;99.90;;;;;;5077297;28;20635;-67
2021/12/05 14:49:17;;;;;;;0.10;0.10;;;4.60;99.90;;;;;;5077314;28;20609;-66
2021/12/05 14:51:46;;;;;;;0.10;0.10;;;4.50;99.90;;;;;;5058721;28;20623;-66
2021/12/05 14:54:20;;;;;;;0.10;0.10;;;4.40;99.90;;;;;;5058354;28;20627;-67
2021/12/05 14:56:48;;;;;;;0.10;0.10;;;4.40;99.90;;;;;;5059765;28;20642;-66
2021/12/05 14:59:17;;;;;;;0.10;0.10;;;4.30;99.90;;;;;;5078069;28;20600;-67
2021/12/05 15:01:50;;;;;;;0.10;0.10;;;4.30;99.90;;;;;;5059918;28;20630;-66
2021/12/05 15:04:24;;;;;;;0.10;0.10;;;4.30;99.90;;;;;;5059496;28;20625;-66
2021/12/05 15:06:52;;;;;;;0.10;0.10;;;4.20;99.90;;;;;;5060094;28;20653;-65
2021/12/05 15:09:23;;;;;;;0.10;0.10;;;4.20;99.90;;;;;;5057401;28;20719;-64
2021/12/05 15:11:52;;;;;;;0.20;0.20;;;4.20;99.90;;;;;;5056387;28;20710;-66
2021/12/05 15:14:20;;;;;;;0.10;0.10;;;4.10;99.90;;;;;;5054508;28;20625;-65
2021/12/05 15:17:01;;;;;;;0.10;0.10;;;4.10;99.90;;;;;;5060042;28;20659;-64
2021/12/05 15:19:29;;;;;;;0.10;0.10;;;4.10;99.90;;;;;;5056272;28;20620;-64
2021/12/05 15:22:00;;;;;;;0.10;0.10;;;4.10;99.90;;;;;;5059156;28;20643;-65
2021/12/05 15:24:28;;;;;;;0.10;0.10;;;4.10;99.90;;;;;;5058513;28;20627;-66
2021/12/05 15:26:57;;;;;;;0.10;0.10;;;4.10;99.90;;;;;;5058083;28;20647;-65
2021/12/05 15:29:25;;;;;;;0.10;0.10;;;4.10;99.90;;;;;;5072339;28;20688;-65
2021/12/05 15:31:53;;;;;;;0.17;0.17;;;4.00;99.90;;;;;;5058330;28;20627;-65
2021/12/05 15:34:35;;;;;;;0.20;0.20;;;3.90;99.90;;;;;;5058158;28;20624;-65
2021/12/05 15:37:11;;;;;;;0.10;0.10;;;3.80;99.90;;;;;;5059104;28;20659;-65
2021/12/05 15:39:42;;;;;;;0.10;0.10;;;3.80;99.90;;;;;;5059832;28;20619;-66
2021/12/05 15:42:22;;;;;;;0.10;0.10;;;3.80;99.90;;;;;;5059421;28;20677;-66
2021/12/05 15:44:52;;;;;;;0.17;0.17;;;3.80;99.90;;;;;;5058708;28;20634;-66
2021/12/05 15:47:21;;;;;;;0.10;0.10;;;3.80;99.90;;;;;;5078757;28;20632;-65
2021/12/05 15:49:53;;;;;;;0.10;0.10;;;3.80;99.90;;;;;;5059950;28;20656;-65
2021/12/05 15:52:26;;;;;;;0.10;0.10;;;3.80;99.90;;;;;;5077116;28;20704;-66
2021/12/05 15:54:54;;;;;;;0.10;0.10;;;3.90;99.90;;;;;;5063549;28;20645;-65
2021/12/05 15:57:31;;;;;;;0.10;0.10;;;3.90;99.90;;;;;;5078480;28;20778;-65
2021/12/05 16:00:01;;;;;;;0.10;0.10;;;3.90;99.90;;;;;;5050426;28;20722;-65
2021/12/05 16:02:28;;;;;;;0.20;0.20;;;3.90;99.90;;;;;;5059139;28;20646;-65
2021/12/05 16:04:57;;;;;;;0.10;0.10;;;3.80;99.90;;;;;;5076531;28;20615;-66
2021/12/05 16:07:32;;;;;;;0.13;0.13;;;3.80;99.90;;;;;;5059943;28;20647;-66
2021/12/05 16:10:16;;;;;;;0.10;0.10;;;3.70;99.90;;;;;;5076884;28;20750;-66
2021/12/05 16:12:46;;;;;;;0.17;0.17;;;3.70;99.90;;;;;;5057870;28;20630;-65
2021/12/05 16:15:16;;;;;;;0.10;0.10;;;3.70;99.90;;;;;;5054031;28;20754;-66
2021/12/05 16:17:51;;;;;;;0.20;0.20;;;3.60;99.90;;;;;;5073202;28;20655;-65
2021/12/05 16:20:21;;;;;;;0.10;0.10;;;3.60;99.90;;;;;;5057316;28;21188;-65
2021/12/05 16:23:06;;;;;;;0.10;0.10;;;3.60;99.90;;;;;;5077169;28;20685;-65
2021/12/05 16:25:35;;;;;;;0.10;0.10;;;3.50;99.90;;;;;;5060470;28;20611;-66
2021/12/05 16:28:05;;;;;;;0.10;0.10;;;3.50;99.90;;;;;;5059451;28;20693;-66
2021/12/05 16:30:35;;;;;;;0.10;0.10;;;3.50;99.90;;;;;;5060417;28;20640;-66
2021/12/05 16:33:05;;;;;;;0.10;0.10;;;3.40;99.90;;;;;;5059025;28;20630;-65
2021/12/05 16:35:36;;;;;;;0.20;0.20;;;3.30;99.90;;;;;;5063788;28;20623;-65
2021/12/05 16:38:19;;;;;;;0.10;0.10;;;3.30;99.90;;;;;;5056815;28;20628;-65
2021/12/05 16:40:55;;;;;;;0.20;0.20;;;3.20;99.90;;;;;;5057016;28;20648;-65
2021/12/05 16:43:22;;;;;;;0.10;0.10;;;;;;;;;;5073199;28;20738;-66
2021/12/05 16:45:49;;;;;;;0.10;0.10;;;3.20;99.90;;;;;;5058264;28;20683;-65
2021/12/05 16:48:18;;;;;;;0.10;0.10;;;3.20;99.90;;;;;;5075784;28;20647;-66
2021/12/05 16:50:45;;;;;;;0.10;0.10;;;3.20;99.90;;;;;;5052203;28;20664;-65
2021/12/05 16:53:15;;;;;;;0.10;0.10;;;3.20;99.90;;;;;;5075872;28;20607;-65
2021/12/05 16:55:45;;;;;;;0.10;0.10;;;3.10;99.90;;;;;;5076112;28;20672;-66
2021/12/05 16:58:17;;;;;;;0.20;0.20;;;3.10;99.90;;;;;;5058583;28;20729;-66
2021/12/05 17:04:04;;;;;;;0.20;0.20;;;3.10;99.90;;;;;;4988359;28;20650;-68
2021/12/05 17:06:47;;;;;;;0.10;0.10;;;3.10;99.90;;;;;;5033395;28;20652;-66
2021/12/05 17:09:15;;;;;;;0.10;0.10;;;3.10;99.90;;;;;;5056154;28;20722;-67
2021/12/05 17:11:42;;;;;;;0.20;0.20;;;3.10;99.90;;;;;;5072748;28;20648;-67
2021/12/05 17:14:20;;;;;;;0.10;0.10;;;3.10;99.90;;;;;;5045572;28;20620;-76
2021/12/05 17:16:47;;;;;;;0.10;0.10;;;3.10;99.90;;;;;;5070863;28;20730;-69